createdAt,value
2023-05-23T00:01:10.422Z,16.10
2023-05-23T00:03:37.491Z,16.10
2023-05-23T00:06:06.316Z,16.10
2023-05-23T00:08:33.024Z,16.10
2023-05-23T00:10:59.788Z,16.10
2023-05-23T00:13:26.909Z,16.10
2023-05-23T00:15:53.627Z,16.10
2023-05-23T00:18:20.372Z,16.00
2023-05-23T00:20:47.142Z,16.00
2023-05-23T00:23:18.979Z,16.00
2023-05-23T00:25:52.629Z,15.90
2023-05-23T00:28:19.876Z,15.90
2023-05-23T00:30:47.013Z,15.90
2023-05-23T00:33:14.590Z,15.80
2023-05-23T00:35:41.843Z,15.80
2023-05-23T00:38:08.882Z,15.70
2023-05-23T00:40:35.631Z,15.70
2023-05-23T00:43:02.580Z,15.60
2023-05-23T00:45:29.556Z,15.60
2023-05-23T00:47:56.554Z,15.60
2023-05-23T00:50:23.537Z,15.50
2023-05-23T00:52:50.646Z,15.50
2023-05-23T00:55:17.466Z,15.40
2023-05-23T00:57:44.543Z,15.40
2023-05-23T01:00:12.359Z,15.40
2023-05-23T01:02:46.108Z,15.40
2023-05-23T01:05:14.962Z,15.40
2023-05-23T01:07:41.699Z,15.40
2023-05-23T01:10:09.026Z,15.30
2023-05-23T01:12:35.869Z,15.30
2023-05-23T01:15:06.478Z,15.30
2023-05-23T01:17:36.453Z,15.30
2023-05-23T01:20:09.210Z,15.30
2023-05-23T01:22:55.404Z,15.30
2023-05-23T01:25:22.040Z,15.20
2023-05-23T01:28:11.328Z,15.20
2023-05-23T01:30:40.345Z,15.20
2023-05-23T01:33:08.322Z,15.20
2023-05-23T01:35:35.557Z,15.20
2023-05-23T01:38:02.257Z,15.20
2023-05-23T01:40:29.071Z,15.20
2023-05-23T01:42:57.371Z,15.20
2023-05-23T01:45:26.518Z,15.20
2023-05-23T01:47:54.046Z,15.20
2023-05-23T01:50:20.884Z,15.10
2023-05-23T01:52:47.734Z,15.10
2023-05-23T01:55:16.130Z,15.10
2023-05-23T01:57:44.169Z,15.10
2023-05-23T02:00:12.143Z,15.10
2023-05-23T02:02:39.025Z,15.00
2023-05-23T02:05:06.185Z,15.00
2023-05-23T02:07:32.905Z,15.00
2023-05-23T02:09:59.559Z,14.90
2023-05-23T02:12:26.265Z,14.90
2023-05-23T02:14:53.880Z,14.90
2023-05-23T02:17:22.140Z,14.80
2023-05-23T02:19:48.860Z,14.80
2023-05-23T02:22:15.726Z,14.80
2023-05-23T02:24:42.569Z,14.80
2023-05-23T02:27:09.224Z,14.80
2023-05-23T02:29:36.108Z,14.70
2023-05-23T02:32:02.829Z,14.70
2023-05-23T02:34:29.688Z,14.70
2023-05-23T02:36:56.791Z,14.70
2023-05-23T02:39:23.565Z,14.70
2023-05-23T02:41:50.254Z,14.70
2023-05-23T02:44:19.603Z,14.60
2023-05-23T02:46:46.364Z,14.60
2023-05-23T02:49:13.142Z,14.60
2023-05-23T02:51:39.863Z,14.60
2023-05-23T02:54:06.585Z,14.60
2023-05-23T02:56:33.301Z,14.50
2023-05-23T02:58:59.937Z,14.50
2023-05-23T03:01:26.671Z,14.50
2023-05-23T03:03:53.653Z,14.50
2023-05-23T03:06:22.674Z,14.50
2023-05-23T03:08:49.512Z,14.50
2023-05-23T03:11:16.465Z,14.50
2023-05-23T03:13:43.229Z,14.50
2023-05-23T03:16:10.089Z,14.40
2023-05-23T03:18:36.901Z,14.40
2023-05-23T03:21:03.711Z,14.40
2023-05-23T03:23:30.547Z,14.40
2023-05-23T03:25:57.259Z,14.40
2023-05-23T03:28:24.097Z,14.40
2023-05-23T03:30:50.825Z,14.40
2023-05-23T03:33:17.583Z,14.40
2023-05-23T03:35:44.757Z,14.40
2023-05-23T03:38:11.515Z,14.40
2023-05-23T03:40:38.316Z,14.30
2023-05-23T03:43:06.125Z,14.30
2023-05-23T03:45:33.302Z,14.30
2023-05-23T03:48:00.574Z,14.30
2023-05-23T03:50:27.785Z,14.30
2023-05-23T03:52:54.651Z,14.30
2023-05-23T03:55:22.464Z,14.30
2023-05-23T03:57:49.490Z,14.20
2023-05-23T04:00:16.286Z,14.20
2023-05-23T04:02:43.881Z,14.20
2023-05-23T04:05:10.734Z,14.20
2023-05-23T04:07:37.485Z,14.20
2023-05-23T04:10:04.542Z,14.20
2023-05-23T04:12:31.499Z,14.20
2023-05-23T04:14:58.258Z,14.20
2023-05-23T04:17:25.741Z,14.30
2023-05-23T04:19:52.565Z,14.40
2023-05-23T04:22:19.283Z,14.40
2023-05-23T04:24:46.096Z,14.50
2023-05-23T04:27:13.757Z,14.50
2023-05-23T04:29:40.563Z,14.50
2023-05-23T04:32:08.062Z,14.50
2023-05-23T04:34:34.811Z,14.60
2023-05-23T04:37:04.610Z,14.60
2023-05-23T04:39:31.334Z,14.60
2023-05-23T04:41:58.134Z,14.60
2023-05-23T04:44:26.727Z,14.60
2023-05-23T04:46:53.504Z,14.60
2023-05-23T04:49:22.699Z,14.70
2023-05-23T04:51:49.461Z,14.70
2023-05-23T04:54:16.157Z,14.70
2023-05-23T04:56:42.927Z,14.70
2023-05-23T04:59:11.375Z,14.70
2023-05-23T05:01:41.276Z,14.70
2023-05-23T05:04:08.265Z,14.70
2023-05-23T05:06:35.071Z,14.60
2023-05-23T05:09:01.771Z,14.70
2023-05-23T05:11:28.637Z,14.70
2023-05-23T05:13:55.482Z,14.60
2023-05-23T05:16:22.481Z,14.60
2023-05-23T05:18:49.182Z,14.60
2023-05-23T05:21:15.901Z,14.60
2023-05-23T05:23:43.530Z,14.70
2023-05-23T05:26:10.425Z,14.70
2023-05-23T05:28:38.302Z,14.70
2023-05-23T05:31:05.647Z,14.60
2023-05-23T05:33:36.195Z,14.60
2023-05-23T05:36:03.723Z,14.60
2023-05-23T05:38:30.790Z,14.50
2023-05-23T05:40:57.497Z,14.60
2023-05-23T05:43:24.291Z,14.50
2023-05-23T05:45:51.021Z,14.50
2023-05-23T05:48:17.788Z,14.60
2023-05-23T05:50:45.535Z,14.60
2023-05-23T05:53:12.667Z,14.70
2023-05-23T05:55:39.887Z,14.80
2023-05-23T05:58:06.879Z,14.80
2023-05-23T06:00:34.894Z,14.90
2023-05-23T06:03:01.714Z,15.00
2023-05-23T06:05:28.481Z,15.10
2023-05-23T06:07:55.101Z,15.10
2023-05-23T06:10:21.768Z,15.20
2023-05-23T06:12:48.928Z,15.20
2023-05-23T06:15:16.040Z,15.30
2023-05-23T06:17:44.860Z,15.40
2023-05-23T06:20:11.897Z,15.50
2023-05-23T06:22:38.762Z,15.70
2023-05-23T06:25:06.757Z,15.80
2023-05-23T06:27:33.404Z,15.90
2023-05-23T06:30:00.087Z,16.00
2023-05-23T06:32:26.795Z,16.10
2023-05-23T06:34:53.514Z,16.10
2023-05-23T06:37:20.231Z,16.10
2023-05-23T06:39:46.881Z,16.10
2023-05-23T06:42:13.582Z,16.10
2023-05-23T06:44:40.452Z,16.20
2023-05-23T06:47:07.136Z,16.30
2023-05-23T06:49:33.830Z,16.40
2023-05-23T06:52:00.525Z,16.40
2023-05-23T06:54:27.221Z,16.50
2023-05-23T07:00:19.066Z,16.70
2023-05-23T07:02:48.454Z,16.70
2023-05-23T07:05:16.205Z,16.80
2023-05-23T07:07:43.395Z,16.90
2023-05-23T07:10:10.409Z,17.00
2023-05-23T07:12:53.510Z,17.10
2023-05-23T07:15:20.185Z,17.10
2023-05-23T07:17:46.968Z,17.20
2023-05-23T07:20:13.670Z,17.30
2023-05-23T07:22:40.352Z,17.40
2023-05-23T07:25:07.583Z,17.50
2023-05-23T07:27:35.003Z,17.70
2023-05-23T07:30:01.868Z,17.70
2023-05-23T07:32:28.550Z,17.80
2023-05-23T07:34:55.647Z,17.90
2023-05-23T07:37:22.450Z,18.00
2023-05-23T07:39:49.130Z,18.20
2023-05-23T07:42:15.929Z,18.30
2023-05-23T07:44:42.776Z,18.60
2023-05-23T07:47:09.433Z,18.90
2023-05-23T07:49:36.356Z,19.10
2023-05-23T07:52:03.091Z,19.30
2023-05-23T07:54:29.774Z,19.40
2023-05-23T07:56:56.489Z,19.50
2023-05-23T07:59:23.352Z,19.60
2023-05-23T08:01:52.871Z,19.50
2023-05-23T08:04:19.712Z,19.40
2023-05-23T08:07:04.410Z,19.40
2023-05-23T08:09:32.068Z,19.30
2023-05-23T08:11:58.832Z,19.30
2023-05-23T08:14:34.886Z,19.20
2023-05-23T08:17:13.702Z,19.20
2023-05-23T08:19:40.527Z,19.10
2023-05-23T08:22:07.388Z,19.10
2023-05-23T08:24:34.329Z,19.10
2023-05-23T08:27:01.057Z,19.10
2023-05-23T08:29:28.314Z,19.00
2023-05-23T08:31:55.075Z,19.00
2023-05-23T08:34:21.784Z,18.90
2023-05-23T08:36:48.501Z,18.90
2023-05-23T08:39:15.218Z,18.80
2023-05-23T08:41:41.974Z,18.90
2023-05-23T08:44:08.745Z,18.70
2023-05-23T08:49:58.628Z,18.80
2023-05-23T08:52:25.420Z,18.90
2023-05-23T08:54:52.628Z,19.10
2023-05-23T08:57:21.644Z,19.10
2023-05-23T08:59:49.108Z,19.10
2023-05-23T09:02:17.022Z,19.20
2023-05-23T09:04:43.726Z,19.30
2023-05-23T09:07:11.892Z,19.40
2023-05-23T09:09:38.913Z,20.40
2023-05-23T09:12:06.215Z,21.10
2023-05-23T09:14:33.480Z,21.40
2023-05-23T09:17:02.577Z,21.40
2023-05-23T09:19:31.290Z,21.80
2023-05-23T09:21:58.206Z,22.20
2023-05-23T09:24:33.605Z,22.40
2023-05-23T09:27:02.030Z,22.50
2023-05-23T09:29:28.777Z,22.80
2023-05-23T09:32:14.829Z,23.00
2023-05-23T09:35:04.369Z,23.20
2023-05-23T09:37:33.028Z,22.90
2023-05-23T09:40:00.908Z,23.00
2023-05-23T09:42:34.234Z,23.20
2023-05-23T09:45:04.020Z,23.60
2023-05-23T10:01:45.312Z,24.70
2023-05-23T10:13:20.683Z,24.50
2023-05-23T10:15:49.823Z,23.90
2023-05-23T10:18:17.563Z,23.60
2023-05-23T10:20:48.348Z,23.40
2023-05-23T10:23:18.565Z,22.80
2023-05-23T10:28:27.289Z,22.20
2023-05-23T10:34:22.579Z,21.40
2023-05-23T10:37:08.165Z,20.90
2023-05-23T10:39:47.234Z,20.50
2023-05-23T10:42:40.683Z,20.30
2023-05-23T10:45:17.346Z,20.30
2023-05-23T10:47:44.633Z,20.00
2023-05-23T10:50:18.949Z,19.80
2023-05-23T10:52:46.175Z,19.80
2023-05-23T10:55:14.825Z,19.50
2023-05-23T10:57:43.810Z,19.30
2023-05-23T11:00:14.491Z,19.10
2023-05-23T11:02:48.077Z,19.00
2023-05-23T11:05:20.121Z,18.90
2023-05-23T11:07:47.146Z,18.80
2023-05-23T11:10:14.452Z,18.70
2023-05-23T11:12:42.666Z,18.80
2023-05-23T11:15:19.350Z,18.70
2023-05-23T11:20:36.398Z,18.70
2023-05-23T11:23:04.169Z,18.50
2023-05-23T11:25:43.229Z,18.40
2023-05-23T11:28:13.222Z,18.30
2023-05-23T11:30:43.210Z,18.10
2023-05-23T11:33:18.862Z,18.10
2023-05-23T11:35:59.007Z,17.60
2023-05-23T11:38:26.233Z,17.50
2023-05-23T11:47:14.831Z,17.00
2023-05-23T11:49:44.312Z,16.90
2023-05-23T11:51:55.730Z,17.10
2023-05-23T11:52:11.059Z,16.80
2023-05-23T11:54:37.900Z,16.50
2023-05-23T11:57:04.786Z,16.50
2023-05-23T11:59:31.561Z,16.30
2023-05-23T12:01:58.609Z,16.10
2023-05-23T12:04:27.347Z,15.90
2023-05-23T12:06:54.347Z,15.80
2023-05-23T12:09:22.003Z,15.60
2023-05-23T12:11:49.245Z,15.40
2023-05-23T12:14:17.047Z,15.30
2023-05-23T12:16:48.406Z,15.20
2023-05-23T12:19:17.108Z,15.00
2023-05-23T12:21:47.530Z,15.00
2023-05-23T12:24:16.014Z,14.90
2023-05-23T12:26:56.722Z,14.90
2023-05-23T12:29:34.967Z,15.00
2023-05-23T12:32:03.850Z,15.00
2023-05-23T12:34:30.595Z,14.90
2023-05-23T12:37:10.537Z,14.90
2023-05-23T12:39:45.398Z,14.90
2023-05-23T12:42:12.541Z,14.90
2023-05-23T12:44:41.058Z,14.80
2023-05-23T12:47:07.975Z,14.80
2023-05-23T12:49:34.844Z,14.60
2023-05-23T12:52:01.525Z,14.50
2023-05-23T12:54:28.241Z,14.50
2023-05-23T12:56:54.949Z,14.40
2023-05-23T13:09:52.270Z,14.10
2023-05-23T13:12:19.471Z,14.00
2023-05-23T13:14:46.357Z,13.90
2023-05-23T13:17:13.329Z,13.90
2023-05-23T13:19:40.852Z,13.80
2023-05-23T13:22:10.495Z,13.80
2023-05-23T13:24:40.928Z,13.70
2023-05-23T13:27:07.819Z,13.60
2023-05-23T13:29:34.574Z,13.50
2023-05-23T13:32:01.407Z,13.40
2023-05-23T13:34:28.785Z,13.30
2023-05-23T13:36:55.694Z,13.20
2023-05-23T13:39:22.868Z,13.10
2023-05-23T13:41:50.300Z,13.00
2023-05-23T13:44:17.063Z,13.00
2023-05-23T13:46:44.123Z,12.80
2023-05-23T13:49:10.933Z,12.80
2023-05-23T13:51:37.644Z,12.60
2023-05-23T13:54:05.176Z,12.50
2023-05-23T13:56:32.426Z,12.40
2023-05-23T13:58:59.319Z,12.30
2023-05-23T14:01:26.065Z,12.30
2023-05-23T14:03:52.970Z,12.20
2023-05-23T14:06:19.609Z,12.20
2023-05-23T14:08:46.469Z,12.10
2023-05-23T14:11:13.178Z,12.10
2023-05-23T14:13:39.853Z,12.10
2023-05-23T14:16:06.668Z,12.00
2023-05-23T14:18:33.419Z,12.10
2023-05-23T14:21:00.171Z,12.00
2023-05-23T14:23:26.861Z,12.00
2023-05-23T14:25:53.522Z,12.00
2023-05-23T14:28:20.298Z,12.00
2023-05-23T14:30:46.996Z,12.00
2023-05-23T14:33:13.982Z,12.00
2023-05-23T14:35:42.199Z,12.10
2023-05-23T14:38:09.173Z,12.10
2023-05-23T14:40:35.884Z,12.10
2023-05-23T14:43:02.736Z,12.20
2023-05-23T14:45:29.432Z,12.20
2023-05-23T14:47:56.399Z,12.20
2023-05-23T14:50:23.144Z,12.30
2023-05-23T14:52:49.821Z,12.30
2023-05-23T14:55:16.533Z,12.40
2023-05-23T14:57:43.361Z,12.40
2023-05-23T15:00:11.561Z,12.50
2023-05-23T15:02:38.402Z,12.50
2023-05-23T15:05:05.321Z,12.60
2023-05-23T15:07:32.622Z,12.70
2023-05-23T15:09:59.399Z,12.80
2023-05-23T15:12:26.079Z,12.90
2023-05-23T15:14:52.812Z,13.00
2023-05-23T15:17:23.012Z,13.10
2023-05-23T15:19:50.858Z,13.20
2023-05-23T15:22:35.245Z,13.30
2023-05-23T15:25:04.336Z,13.40
2023-05-23T15:27:31.030Z,13.40
2023-05-23T15:29:57.760Z,13.50
2023-05-23T15:32:24.464Z,13.60
2023-05-23T15:34:51.323Z,13.80
2023-05-23T15:37:18.083Z,13.70
2023-05-23T15:39:44.913Z,13.90
2023-05-23T15:42:11.770Z,14.10
2023-05-23T15:44:38.678Z,14.20
2023-05-23T15:47:05.416Z,14.50
2023-05-23T15:49:32.085Z,14.40
2023-05-23T15:51:58.788Z,14.50
2023-05-23T15:54:25.422Z,14.50
2023-05-23T15:56:52.205Z,14.40
2023-05-23T15:59:18.912Z,14.40
2023-05-23T16:01:45.791Z,14.40
2023-05-23T16:04:12.683Z,14.50
2023-05-23T16:06:39.486Z,14.70
2023-05-23T16:09:06.244Z,14.90
2023-05-23T16:11:32.978Z,15.00
2023-05-23T16:13:59.663Z,15.20
2023-05-23T16:16:26.445Z,15.50
2023-05-23T16:18:53.327Z,15.50
2023-05-23T16:21:20.949Z,15.50
2023-05-23T16:23:48.490Z,15.30
2023-05-23T16:26:16.192Z,15.20
2023-05-23T16:28:44.126Z,15.10
2023-05-23T16:31:13.997Z,14.90
2023-05-23T16:33:40.970Z,14.80
2023-05-23T16:36:07.754Z,14.80
2023-05-23T16:38:34.491Z,14.80
2023-05-23T16:41:01.290Z,14.80
2023-05-23T16:43:28.087Z,14.80
2023-05-23T16:45:54.917Z,14.80
2023-05-23T16:48:22.171Z,14.90
2023-05-23T16:50:48.986Z,14.90
2023-05-23T16:53:15.713Z,14.90
2023-05-23T16:55:42.717Z,14.80
2023-05-23T16:58:09.581Z,14.80
2023-05-23T17:00:36.242Z,14.70
2023-05-23T17:03:03.232Z,14.50
2023-05-23T17:05:30.056Z,14.40
2023-05-23T17:07:56.746Z,14.30
2023-05-23T17:10:23.497Z,14.30
2023-05-23T17:12:50.471Z,14.20
2023-05-23T17:15:17.151Z,14.10
2023-05-23T17:17:43.954Z,14.10
2023-05-23T17:20:11.593Z,14.00
2023-05-23T17:22:38.269Z,13.90
2023-05-23T17:25:06.592Z,13.90
2023-05-23T17:27:33.735Z,13.90
2023-05-23T17:30:00.522Z,13.80
2023-05-23T17:32:27.940Z,13.80
2023-05-23T17:34:54.829Z,13.70
2023-05-23T17:37:21.707Z,13.70
2023-05-23T17:39:50.880Z,13.60
2023-05-23T17:42:38.701Z,13.60
2023-05-23T17:45:05.900Z,13.50
2023-05-23T17:47:32.720Z,13.50
2023-05-23T17:49:59.401Z,13.40
2023-05-23T17:52:26.806Z,13.30
2023-05-23T17:54:53.502Z,13.30
2023-05-23T17:57:20.291Z,13.30
2023-05-23T17:59:47.231Z,13.20
2023-05-23T18:02:13.946Z,13.10
2023-05-23T18:04:41.499Z,13.10
2023-05-23T18:07:11.928Z,13.10
2023-05-23T18:09:38.732Z,13.00
2023-05-23T18:12:05.820Z,13.00
2023-05-23T18:14:32.702Z,13.00
2023-05-23T18:16:59.423Z,13.00
2023-05-23T18:19:26.188Z,12.90
2023-05-23T18:21:52.961Z,12.90
2023-05-23T18:24:19.709Z,12.80
2023-05-23T18:26:46.450Z,12.80
2023-05-23T18:29:13.195Z,12.70
2023-05-23T18:31:40.209Z,12.70
2023-05-23T18:34:06.993Z,12.70
2023-05-23T18:36:33.762Z,12.60
2023-05-23T18:39:00.482Z,12.60
2023-05-23T18:41:30.102Z,12.50
2023-05-23T18:43:57.060Z,12.50
2023-05-23T18:46:25.471Z,12.40
2023-05-23T18:48:57.229Z,12.40
2023-05-23T18:51:23.977Z,12.30
2023-05-23T18:53:50.925Z,12.30
2023-05-23T18:56:17.665Z,12.30
2023-05-23T18:58:46.717Z,12.20
2023-05-23T19:01:13.981Z,12.20
2023-05-23T19:03:41.292Z,12.20
2023-05-23T19:06:08.297Z,12.20
2023-05-23T19:08:35.009Z,12.20
2023-05-23T19:11:01.883Z,12.10
2023-05-23T19:13:28.662Z,12.10
2023-05-23T19:15:55.466Z,12.10
2023-05-23T19:18:22.689Z,12.00
2023-05-23T19:20:51.616Z,12.00
2023-05-23T19:23:19.000Z,12.00
2023-05-23T19:25:45.771Z,12.00
2023-05-23T19:28:12.763Z,12.00
2023-05-23T19:30:40.866Z,12.00
2023-05-23T19:33:08.932Z,12.00
2023-05-23T19:35:36.037Z,11.90
2023-05-23T19:38:02.905Z,11.90
2023-05-23T19:40:29.675Z,11.90
2023-05-23T19:42:56.369Z,11.90
2023-05-23T19:45:23.175Z,11.90
2023-05-23T19:47:49.926Z,11.90
2023-05-23T19:50:16.690Z,11.90
2023-05-23T19:52:43.379Z,11.90
2023-05-23T19:55:10.151Z,11.80
2023-05-23T19:57:37.362Z,11.80
2023-05-23T20:00:05.620Z,11.80
2023-05-23T20:02:32.548Z,11.80
2023-05-23T20:04:59.272Z,11.80
2023-05-23T20:07:25.944Z,11.70
2023-05-23T20:09:52.731Z,11.70
2023-05-23T20:12:19.435Z,11.70
2023-05-23T20:14:46.725Z,11.70
2023-05-23T20:17:13.443Z,11.70
2023-05-23T20:19:40.262Z,11.70
2023-05-23T20:22:07.017Z,11.70
2023-05-23T20:24:33.820Z,11.60
2023-05-23T20:27:00.855Z,11.60
2023-05-23T20:29:27.580Z,11.60
2023-05-23T20:31:54.324Z,11.60
2023-05-23T20:34:21.114Z,11.60
2023-05-23T20:36:47.799Z,11.50
2023-05-23T20:39:14.614Z,11.50
2023-05-23T20:41:42.167Z,11.50
2023-05-23T20:44:12.454Z,11.50
2023-05-23T20:46:41.987Z,11.50
2023-05-23T20:49:09.620Z,11.50
2023-05-23T20:51:37.260Z,11.40
2023-05-23T20:54:05.275Z,11.40
2023-05-23T20:56:32.607Z,11.40
2023-05-23T20:59:02.089Z,11.40
2023-05-23T21:01:28.927Z,11.30
2023-05-23T21:03:55.671Z,11.30
2023-05-23T21:06:22.475Z,11.30
2023-05-23T21:08:49.259Z,11.30
2023-05-23T21:11:16.182Z,11.20
2023-05-23T21:13:43.051Z,11.30
2023-05-23T21:16:12.493Z,11.20
2023-05-23T21:18:39.259Z,11.20
2023-05-23T21:21:06.113Z,11.20
2023-05-23T21:23:32.880Z,11.20
2023-05-23T21:25:59.581Z,11.20
2023-05-23T21:28:26.664Z,11.20
2023-05-23T21:30:53.919Z,11.10
2023-05-23T21:33:21.180Z,11.10
2023-05-23T21:35:48.000Z,11.20
2023-05-23T21:38:14.806Z,11.20
2023-05-23T21:40:41.736Z,11.20
2023-05-23T21:43:08.556Z,11.20
2023-05-23T21:45:35.322Z,11.10
2023-05-23T21:48:02.087Z,11.10
2023-05-23T21:50:28.852Z,11.10
2023-05-23T21:52:55.596Z,11.10
2023-05-23T21:55:22.251Z,11.10
2023-05-23T21:57:48.962Z,11.10
2023-05-23T22:00:18.648Z,11.10
2023-05-23T22:02:45.502Z,11.00
2023-05-23T22:05:13.309Z,11.00
2023-05-23T22:07:40.085Z,11.00
2023-05-23T22:10:07.281Z,10.90
2023-05-23T22:12:34.000Z,10.90
2023-05-23T22:15:01.063Z,10.90
2023-05-23T22:17:27.827Z,10.90
2023-05-23T22:19:57.014Z,10.80
2023-05-23T22:22:23.764Z,10.80
2023-05-23T22:24:50.536Z,10.80
2023-05-23T22:27:17.225Z,10.80
2023-05-23T22:29:44.058Z,10.80
2023-05-23T22:32:10.884Z,10.80
2023-05-23T22:34:38.503Z,10.80
2023-05-23T22:37:05.320Z,10.80
2023-05-23T22:39:32.318Z,10.80
2023-05-23T22:41:59.058Z,10.80
2023-05-23T22:44:26.181Z,10.80
2023-05-23T22:46:52.944Z,10.80
2023-05-23T22:49:22.229Z,10.80
2023-05-23T22:51:49.027Z,10.80
2023-05-23T22:54:15.706Z,10.80
2023-05-23T22:56:42.546Z,10.80
2023-05-23T22:59:09.269Z,10.80
2023-05-23T23:01:36.447Z,10.70
2023-05-23T23:04:03.222Z,10.70
2023-05-23T23:06:29.967Z,10.70
2023-05-23T23:08:56.730Z,10.70
2023-05-23T23:11:23.357Z,10.60
2023-05-23T23:13:50.074Z,10.60
2023-05-23T23:16:19.447Z,10.60
2023-05-23T23:18:47.104Z,10.50
2023-05-23T23:21:13.920Z,10.50
2023-05-23T23:23:40.987Z,10.50
2023-05-23T23:26:07.750Z,10.50
2023-05-23T23:28:34.437Z,10.50
2023-05-23T23:31:01.276Z,10.50
2023-05-23T23:33:28.035Z,10.50
2023-05-23T23:35:54.906Z,10.40
2023-05-23T23:38:21.558Z,10.40
2023-05-23T23:40:48.310Z,10.40
2023-05-23T23:43:15.069Z,10.40
2023-05-23T23:45:41.986Z,10.40
2023-05-23T23:48:08.924Z,10.40
2023-05-23T23:50:35.744Z,10.40
2023-05-23T23:53:02.397Z,10.40
2023-05-23T23:55:29.086Z,10.40
2023-05-23T23:57:55.752Z,10.40
